Time;durP1;ratioP1;P1;durP2;ratioP2;P2;SDS_P1;SDS_P2;PMS_P1;PMS_P2;Temp;Humidity;BMP_temperature;BMP_pressure;BME280_temperature;BME280_humidity;BME280_pressure;Samples;Min_cycle;Max_cycle;Signal;HPM_P1;HPM_P2
2022/07/02 00:00:51;;;;;;;8.00;2.50;;;15.50;99.90;;;;;;5014127;28;20402;-84
2022/07/02 00:03:23;;;;;;;8.57;3.13;;;15.50;99.90;;;;;;4997719;28;20049;-84
2022/07/02 00:05:56;;;;;;;7.40;2.67;;;15.50;99.90;;;;;;5005642;28;20045;-84
2022/07/02 00:08:24;;;;;;;8.88;3.20;;;15.40;99.90;;;;;;4997600;28;20037;-84
2022/07/02 00:10:51;;;;;;;8.43;3.00;;;15.40;99.90;;;;;;5013158;28;20049;-84
2022/07/02 00:13:17;;;;;;;7.32;2.70;;;15.50;99.90;;;;;;5014083;28;20053;-84
2022/07/02 00:15:44;;;;;;;9.43;3.20;;;15.50;99.90;;;;;;5030629;28;20041;-84
2022/07/02 00:18:10;;;;;;;8.77;3.15;;;15.40;99.90;;;;;;5013880;28;20046;-84
2022/07/02 00:20:37;;;;;;;7.60;3.00;;;15.40;99.90;;;;;;5013459;28;20107;-84
2022/07/02 00:23:03;;;;;;;7.43;3.03;;;15.40;99.90;;;;;;5013497;28;20038;-84
2022/07/02 00:25:36;;;;;;;7.22;3.08;;;15.40;99.90;;;;;;4997053;28;20041;-85
2022/07/02 00:28:02;;;;;;;;;;;15.40;99.90;;;;;;5013732;28;20625;-85
2022/07/02 00:30:27;;;;;;;9.10;3.50;;;15.30;99.90;;;;;;5029341;28;19917;-85
2022/07/02 00:32:53;;;;;;;7.30;2.83;;;15.30;99.90;;;;;;5013726;28;20080;-85
2022/07/02 00:35:19;;;;;;;8.00;3.00;;;15.20;99.90;;;;;;4996984;28;20041;-85
2022/07/02 00:37:46;;;;;;;7.78;2.92;;;15.20;99.90;;;;;;5014322;28;20060;-85
2022/07/02 00:40:13;;;;;;;6.93;2.80;;;15.20;99.90;;;;;;5012921;28;20411;-85
2022/07/02 00:42:39;;;;;;;8.85;3.35;;;15.20;99.90;;;;;;5013627;28;20034;-85
2022/07/02 00:45:05;;;;;;;8.43;3.28;;;15.20;99.90;;;;;;4996628;28;20435;-85
2022/07/02 00:47:34;;;;;;;10.18;3.70;;;15.20;99.90;;;;;;5001991;28;20512;-84
2022/07/02 00:50:03;;;;;;;10.00;3.72;;;15.20;99.90;;;;;;4976872;28;20092;-85
2022/07/02 00:52:29;;;;;;;9.32;3.05;;;15.20;99.90;;;;;;4997724;28;20116;-85
2022/07/02 00:54:54;;;;;;;7.85;2.92;;;15.20;99.90;;;;;;5012906;28;20157;-85
2022/07/02 00:57:20;;;;;;;7.90;3.10;;;15.20;99.90;;;;;;4996662;28;20037;-85
2022/07/02 00:59:46;;;;;;;8.02;2.50;;;15.10;99.90;;;;;;5013496;28;20045;-85
2022/07/02 01:02:13;;;;;;;8.43;3.50;;;15.00;99.90;;;;;;5013145;28;20051;-85
2022/07/02 01:04:40;;;;;;;8.65;3.85;;;14.90;99.90;;;;;;4995715;28;20048;-85
2022/07/02 01:07:08;;;;;;;7.72;3.10;;;14.90;99.90;;;;;;4996078;28;20828;-85
2022/07/02 01:12:30;;;;;;;8.85;3.90;;;14.80;99.90;;;;;;5012555;28;20042;-85
2022/07/02 01:14:57;;;;;;;7.80;3.80;;;14.70;99.90;;;;;;5013040;28;20041;-85
2022/07/02 01:17:23;;;;;;;8.20;3.40;;;14.80;99.90;;;;;;4996431;28;20438;-84
2022/07/02 01:19:49;;;;;;;7.95;3.88;;;14.80;99.90;;;;;;5013137;28;20411;-85
2022/07/02 01:22:18;;;;;;;8.07;3.42;;;14.70;99.90;;;;;;5012513;28;20513;-85
2022/07/02 01:24:47;;;;;;;7.53;3.95;;;14.70;99.90;;;;;;5029086;28;20045;-85
2022/07/02 01:27:13;;;;;;;7.45;3.72;;;14.70;99.90;;;;;;5012123;28;20038;-84
2022/07/02 01:29:39;;;;;;;9.98;4.10;;;14.70;99.90;;;;;;5012627;28;20469;-84
2022/07/02 01:32:06;;;;;;;9.32;4.30;;;14.70;99.90;;;;;;5000019;28;20537;-85
2022/07/02 01:34:42;;;;;;;9.00;4.13;;;14.70;99.90;;;;;;5016827;28;20526;-84
2022/07/02 01:37:16;;;;;;;11.00;4.45;;;14.70;99.90;;;;;;5017548;28;20045;-85
2022/07/02 01:39:43;;;;;;;7.65;4.13;;;14.70;99.90;;;;;;5005586;28;20033;-85
2022/07/02 01:42:09;;;;;;;9.07;3.45;;;14.70;99.90;;;;;;4997446;28;20410;-84
2022/07/02 01:44:36;;;;;;;8.82;4.60;;;14.60;99.90;;;;;;5010660;28;20068;-84
2022/07/02 01:47:04;;;;;;;7.88;3.47;;;14.60;99.90;;;;;;5016665;28;20457;-85
2022/07/02 01:49:29;;;;;;;8.70;4.93;;;14.60;99.90;;;;;;5015819;28;20076;-84
2022/07/02 01:51:55;;;;;;;10.00;4.53;;;14.60;99.90;;;;;;4999259;28;20437;-84
2022/07/02 01:54:21;;;;;;;9.88;4.88;;;14.60;99.90;;;;;;5000537;28;20049;-85
2022/07/02 01:56:46;;;;;;;8.73;5.00;;;14.60;99.90;;;;;;5016075;28;20044;-84
2022/07/02 01:59:13;;;;;;;10.48;5.00;;;14.60;99.90;;;;;;5000297;28;20072;-84
2022/07/02 02:01:42;;;;;;;9.85;4.93;;;14.70;99.90;;;;;;5000199;28;20037;-85
2022/07/02 02:04:08;;;;;;;9.50;4.85;;;14.60;99.90;;;;;;5015693;28;20045;-84
2022/07/02 02:06:34;;;;;;;8.77;3.92;;;14.60;99.90;;;;;;5032148;28;20037;-85
2022/07/02 02:09:00;;;;;;;9.80;5.18;;;14.60;99.90;;;;;;5015600;28;20152;-84
2022/07/02 02:11:25;;;;;;;9.10;3.90;;;14.60;99.90;;;;;;4999433;28;20049;-84
2022/07/02 02:13:51;;;;;;;9.93;4.75;;;14.50;99.90;;;;;;5015336;28;20042;-84
2022/07/02 02:16:17;;;;;;;9.95;5.30;;;14.50;99.90;;;;;;5016200;28;20060;-84
2022/07/02 02:18:43;;;;;;;8.48;4.40;;;14.50;99.90;;;;;;5016666;28;20069;-84
2022/07/02 02:21:09;;;;;;;8.85;3.92;;;14.50;99.90;;;;;;4998948;28;20052;-84
2022/07/02 02:23:34;;;;;;;8.43;4.60;;;14.50;99.90;;;;;;5015998;28;20038;-84
2022/07/02 02:26:00;;;;;;;10.13;4.18;;;14.40;99.90;;;;;;4999542;28;20037;-84
2022/07/02 02:28:25;;;;;;;10.25;4.75;;;14.40;99.90;;;;;;4998217;28;20037;-84
2022/07/02 02:30:51;;;;;;;9.57;4.80;;;14.40;99.90;;;;;;5015522;28;20534;-84
2022/07/02 02:33:17;;;;;;;8.50;4.68;;;14.40;99.90;;;;;;5015557;28;20040;-84
2022/07/02 02:35:43;;;;;;;8.27;5.07;;;14.40;99.90;;;;;;4981167;28;20511;-84
2022/07/02 02:38:08;;;;;;;11.27;4.38;;;14.30;99.90;;;;;;4980300;28;20049;-84
2022/07/02 02:40:34;;;;;;;12.18;5.57;;;14.30;99.90;;;;;;4998892;28;20038;-84
2022/07/02 02:42:59;;;;;;;10.80;5.47;;;14.20;99.90;;;;;;5032076;28;20047;-84
2022/07/02 02:45:25;;;;;;;10.38;6.10;;;14.30;99.90;;;;;;5014520;28;20442;-84
2022/07/02 02:47:50;;;;;;;9.63;4.28;;;14.30;99.90;;;;;;5015317;28;20435;-84
2022/07/02 02:50:17;;;;;;;9.50;4.57;;;14.20;99.90;;;;;;5015072;28;20130;-84
2022/07/02 02:52:42;;;;;;;10.85;5.72;;;14.10;99.90;;;;;;5014244;28;20144;-84
2022/07/02 02:55:08;;;;;;;12.35;5.53;;;14.10;99.90;;;;;;5015579;28;20141;-84
2022/07/02 02:57:34;;;;;;;10.00;5.90;;;14.10;99.90;;;;;;4998693;28;20025;-84
2022/07/02 03:00:00;;;;;;;10.68;6.07;;;14.10;99.90;;;;;;5031764;28;20096;-84
2022/07/02 03:02:25;;;;;;;10.50;4.65;;;14.10;99.90;;;;;;4999512;28;20041;-84
2022/07/02 03:04:51;;;;;;;10.43;5.03;;;14.00;99.90;;;;;;4998072;28;20495;-84
2022/07/02 03:07:16;;;;;;;12.00;5.25;;;14.00;99.90;;;;;;5014845;28;20033;-83
2022/07/02 03:09:42;;;;;;;11.43;6.78;;;13.90;99.90;;;;;;5030592;28;20582;-84
2022/07/02 03:12:08;;;;;;;10.80;6.47;;;13.90;99.90;;;;;;5013866;28;20037;-84
2022/07/02 03:14:34;;;;;;;12.65;6.05;;;14.00;99.90;;;;;;5015016;28;20045;-84
2022/07/02 03:16:59;;;;;;;9.00;4.82;;;14.00;99.90;;;;;;5014838;28;20033;-84
2022/07/02 03:19:25;;;;;;;9.68;6.38;;;14.00;99.90;;;;;;5014851;28;20144;-84
2022/07/02 03:21:50;;;;;;;11.07;6.47;;;14.00;99.90;;;;;;5015286;28;20041;-84
2022/07/02 03:24:16;;;;;;;10.93;5.53;;;14.00;99.90;;;;;;5014521;28;20041;-84
2022/07/02 03:26:42;;;;;;;10.95;6.22;;;13.90;99.90;;;;;;4997888;28;20048;-84
2022/07/02 03:29:07;;;;;;;10.43;6.38;;;13.90;99.90;;;;;;5014279;28;20033;-84
2022/07/02 03:31:33;;;;;;;9.15;4.70;;;14.00;99.90;;;;;;4997235;28;20565;-84
2022/07/02 03:33:58;;;;;;;9.57;5.30;;;13.90;99.90;;;;;;4998629;28;20112;-84
2022/07/02 03:36:24;;;;;;;9.63;5.13;;;13.80;99.90;;;;;;5013839;28;20225;-84
2022/07/02 03:38:50;;;;;;;10.13;6.75;;;13.90;99.90;;;;;;5014956;28;20037;-84
2022/07/02 03:41:16;;;;;;;10.48;6.32;;;13.90;99.90;;;;;;4998069;28;20041;-84
2022/07/02 03:43:42;;;;;;;10.52;5.25;;;13.90;99.90;;;;;;5013767;28;20052;-84
2022/07/02 03:46:07;;;;;;;11.73;6.68;;;13.90;99.90;;;;;;4997339;28;20045;-84
2022/07/02 03:48:33;;;;;;;9.75;6.30;;;13.90;99.90;;;;;;5029916;28;20116;-84
2022/07/02 03:50:59;;;;;;;11.23;6.25;;;13.90;99.90;;;;;;5013113;28;20053;-84
2022/07/02 03:53:24;;;;;;;12.88;6.47;;;13.90;99.90;;;;;;5013335;28;20044;-84
2022/07/02 03:55:50;;;;;;;12.48;7.22;;;13.90;99.90;;;;;;5013773;28;20045;-84
2022/07/02 03:58:15;;;;;;;9.93;5.40;;;13.90;99.90;;;;;;5014845;28;20076;-84
2022/07/02 04:00:41;;;;;;;10.55;4.93;;;13.90;99.90;;;;;;4997659;28;20044;-83
2022/07/02 04:03:06;;;;;;;10.55;5.70;;;13.80;99.90;;;;;;5013798;28;20053;-84
2022/07/02 04:05:32;;;;;;;9.27;5.20;;;13.80;99.90;;;;;;5030305;28;20033;-84
2022/07/02 04:07:58;;;;;;;11.15;6.97;;;13.80;99.90;;;;;;5013417;28;20441;-84
2022/07/02 04:10:23;;;;;;;10.85;7.22;;;13.80;99.90;;;;;;5013310;28;20130;-84
2022/07/02 04:12:49;;;;;;;11.45;5.60;;;13.80;99.90;;;;;;5013396;28;20482;-83
2022/07/02 04:15:14;;;;;;;12.05;6.07;;;13.90;99.90;;;;;;5014232;28;20068;-84
2022/07/02 04:17:40;;;;;;;11.45;6.18;;;13.80;99.90;;;;;;5008469;28;20038;-84
2022/07/02 04:20:06;;;;;;;10.77;7.05;;;13.80;99.90;;;;;;4994435;28;20033;-84
2022/07/02 04:22:32;;;;;;;9.98;5.40;;;13.90;99.90;;;;;;5014305;28;20411;-84
2022/07/02 04:24:57;;;;;;;9.60;6.40;;;13.90;99.90;;;;;;5029700;28;20029;-84
2022/07/02 04:27:23;;;;;;;11.35;6.70;;;13.90;99.90;;;;;;5029714;28;20053;-84
2022/07/02 04:29:48;;;;;;;11.20;5.75;;;14.00;99.90;;;;;;5012633;28;20034;-84
2022/07/02 04:32:14;;;;;;;10.20;6.85;;;14.00;99.90;;;;;;4996568;28;20037;-84
2022/07/02 04:34:40;;;;;;;11.75;6.53;;;14.00;99.90;;;;;;5030113;28;20048;-84
2022/07/02 04:37:06;;;;;;;15.07;7.50;;;14.10;99.90;;;;;;5030906;28;20033;-84
2022/07/02 04:39:31;;;;;;;11.00;5.30;;;14.10;99.90;;;;;;5029730;28;20087;-84
2022/07/02 04:41:58;;;;;;;10.50;6.75;;;14.10;99.90;;;;;;5014061;28;20132;-84
2022/07/02 04:44:24;;;;;;;12.48;6.03;;;14.10;99.90;;;;;;4996606;28;20045;-84
2022/07/02 04:46:50;;;;;;;10.27;7.47;;;14.10;99.90;;;;;;4996744;28;20491;-84
2022/07/02 04:49:15;;;;;;;9.95;6.22;;;14.10;99.90;;;;;;5013033;28;20033;-84
2022/07/02 04:51:41;;;;;;;11.60;6.70;;;14.20;99.90;;;;;;5028914;28;20037;-84
2022/07/02 04:54:07;;;;;;;11.40;5.57;;;14.20;99.90;;;;;;4996761;28;20426;-84
2022/07/02 04:56:32;;;;;;;10.70;6.57;;;14.20;99.90;;;;;;5012442;28;20091;-84
2022/07/02 04:58:58;;;;;;;11.30;5.47;;;14.30;99.90;;;;;;5013508;28;20037;-84
2022/07/02 05:01:23;;;;;;;10.70;6.35;;;14.40;99.90;;;;;;5013415;28;20037;-84
2022/07/02 05:03:51;;;;;;;10.48;6.38;;;14.40;99.90;;;;;;5012515;28;20041;-84
2022/07/02 05:06:17;;;;;;;10.55;6.50;;;14.50;99.90;;;;;;5012531;28;20045;-83
2022/07/02 05:08:43;;;;;;;12.48;6.65;;;14.60;99.90;;;;;;5011868;28;20078;-84
2022/07/02 05:11:09;;;;;;;10.98;6.40;;;14.60;99.90;;;;;;4996277;28;20116;-84
2022/07/02 05:13:34;;;;;;;10.35;5.70;;;14.70;99.90;;;;;;5012606;28;20048;-84
2022/07/02 05:16:00;;;;;;;12.57;6.70;;;14.80;99.90;;;;;;5012777;28;20041;-84
2022/07/02 05:18:25;;;;;;;11.60;5.93;;;14.80;99.90;;;;;;4997442;28;20446;-84
2022/07/02 05:20:51;;;;;;;11.98;7.28;;;14.90;99.90;;;;;;4996133;28;20033;-84
2022/07/02 05:23:17;;;;;;;11.73;7.07;;;14.90;99.90;;;;;;5013496;28;20418;-83
2022/07/02 05:25:42;;;;;;;11.05;6.97;;;15.00;99.90;;;;;;4996150;28;20048;-84
2022/07/02 05:28:08;;;;;;;11.93;7.55;;;15.10;99.90;;;;;;5012132;28;20040;-84
2022/07/02 05:30:34;;;;;;;12.75;6.18;;;15.10;99.90;;;;;;5029062;28;20041;-84
2022/07/02 05:32:59;;;;;;;12.23;5.43;;;15.20;99.90;;;;;;5011532;28;20040;-84
2022/07/02 05:35:25;;;;;;;11.07;6.32;;;15.30;99.90;;;;;;4996309;28;20041;-85
2022/07/02 05:37:50;;;;;;;10.55;5.47;;;15.30;99.90;;;;;;4996578;28;20033;-84
2022/07/02 05:40:16;;;;;;;11.00;5.68;;;15.40;99.90;;;;;;5012314;28;20042;-84
2022/07/02 05:42:42;;;;;;;10.50;4.53;;;15.40;99.90;;;;;;5013563;28;20120;-84
2022/07/02 05:45:07;;;;;;;10.60;5.70;;;15.50;99.90;;;;;;5012456;28;20045;-84
2022/07/02 05:47:33;;;;;;;11.32;4.95;;;15.50;99.90;;;;;;5012672;28;20080;-84
2022/07/02 05:49:59;;;;;;;11.07;5.38;;;15.60;99.90;;;;;;5011709;28;20041;-85
2022/07/02 05:52:24;;;;;;;11.07;5.20;;;15.60;99.90;;;;;;5028400;28;20124;-85
2022/07/02 05:54:50;;;;;;;10.10;5.32;;;15.60;99.90;;;;;;5012052;28;20060;-84
2022/07/02 05:57:16;;;;;;;10.90;4.50;;;15.70;99.90;;;;;;4996249;28;20120;-84
2022/07/02 05:59:41;;;;;;;11.30;5.28;;;15.70;99.90;;;;;;5012787;28;20073;-85
2022/07/02 06:02:07;;;;;;;8.73;4.65;;;15.80;99.90;;;;;;5012500;28;20036;-85
2022/07/02 06:04:34;;;;;;;12.05;4.57;;;15.80;99.90;;;;;;5011999;28;20033;-85
2022/07/02 06:09:44;;;;;;;10.07;4.53;;;16.00;99.90;;;;;;5011864;28;20037;-85
2022/07/02 06:12:10;;;;;;;8.48;4.07;;;16.00;99.90;;;;;;4995182;28;20033;-84
2022/07/02 06:14:36;;;;;;;9.57;4.95;;;16.10;99.90;;;;;;5012095;28;20045;-84
2022/07/02 06:17:01;;;;;;;8.68;4.20;;;16.20;99.90;;;;;;5015078;28;20037;-85
2022/07/02 06:19:27;;;;;;;8.20;4.32;;;16.30;99.90;;;;;;5014766;28;20076;-84
2022/07/02 06:21:53;;;;;;;9.93;4.72;;;16.30;99.90;;;;;;5016398;28;20113;-84
2022/07/02 06:24:19;;;;;;;9.98;4.38;;;16.40;99.90;;;;;;4999590;28;20030;-84
2022/07/02 06:26:44;;;;;;;9.52;3.92;;;16.50;99.90;;;;;;5015559;28;20045;-84
2022/07/02 06:29:10;;;;;;;9.00;4.25;;;16.60;99.90;;;;;;5014865;28;20064;-84
2022/07/02 06:31:36;;;;;;;10.38;4.32;;;16.60;99.90;;;;;;5014818;28;20037;-84
2022/07/02 06:34:05;;;;;;;10.00;3.70;;;16.70;99.90;;;;;;5014880;28;20045;-84
2022/07/02 06:36:30;;;;;;;9.68;3.30;;;16.80;99.90;;;;;;4993802;28;20119;-82
2022/07/02 06:38:56;;;;;;;7.47;2.28;;;16.90;99.90;;;;;;5013947;28;20513;-84
2022/07/02 06:44:07;;;;;;;10.15;2.83;;;16.90;99.90;;;;;;5029870;28;20049;-84
2022/07/02 06:46:33;;;;;;;8.85;2.53;;;17.00;99.90;;;;;;5012576;28;20038;-85
2022/07/02 06:48:59;;;;;;;7.60;2.28;;;17.10;99.90;;;;;;5014792;28;20080;-85
2022/07/02 06:51:25;;;;;;;7.82;2.20;;;17.20;99.90;;;;;;5010524;28;20041;-85
2022/07/02 06:53:51;;;;;;;7.05;2.10;;;17.30;99.90;;;;;;5010300;28;20427;-85
2022/07/02 06:56:16;;;;;;;7.70;2.10;;;17.30;99.90;;;;;;4995377;28;20044;-84
2022/07/02 06:58:42;;;;;;;5.40;2.08;;;17.40;99.90;;;;;;5015621;28;20064;-85
2022/07/02 07:01:08;;;;;;;7.32;2.30;;;17.40;99.90;;;;;;5032327;28;20513;-85
2022/07/02 07:03:33;;;;;;;6.35;1.88;;;17.50;99.90;;;;;;5031099;28;20041;-85
2022/07/02 07:05:59;;;;;;;7.18;1.92;;;17.50;99.90;;;;;;4999055;28;20049;-85
2022/07/02 07:08:24;;;;;;;5.80;1.75;;;17.60;99.90;;;;;;5014847;28;20060;-85
2022/07/02 07:10:50;;;;;;;6.78;1.90;;;17.70;99.90;;;;;;5013677;28;20135;-85
2022/07/02 07:13:15;;;;;;;5.53;1.50;;;17.70;99.90;;;;;;5015007;28;20606;-85
2022/07/02 07:15:41;;;;;;;5.38;1.20;;;17.80;99.90;;;;;;5014728;28;20126;-85
2022/07/02 07:18:07;;;;;;;5.53;1.50;;;17.90;99.90;;;;;;5014225;28;20037;-85
2022/07/02 07:20:32;;;;;;;5.85;1.75;;;18.00;99.90;;;;;;5032875;28;20038;-85
2022/07/02 07:23:01;;;;;;;4.85;1.60;;;18.00;99.90;;;;;;4998823;28;20029;-84
2022/07/02 07:25:27;;;;;;;7.45;1.60;;;18.00;99.90;;;;;;5015006;28;20040;-84
2022/07/02 07:27:53;;;;;;;6.03;1.30;;;18.10;99.90;;;;;;5029748;28;20414;-85
2022/07/02 07:30:18;;;;;;;4.13;1.35;;;18.20;99.90;;;;;;4997360;28;20034;-85
2022/07/02 07:32:44;;;;;;;5.82;1.50;;;18.20;99.90;;;;;;5014158;28;20049;-85
2022/07/02 07:35:10;;;;;;;5.53;1.80;;;18.30;99.90;;;;;;5013941;28;20412;-85
2022/07/02 07:37:36;;;;;;;5.25;1.48;;;18.30;99.90;;;;;;5014836;28;20457;-85
2022/07/02 07:40:03;;;;;;;7.50;1.70;;;18.40;99.90;;;;;;5014612;28;20084;-85
2022/07/02 07:42:29;;;;;;;5.63;1.50;;;18.40;99.90;;;;;;4998425;28;20075;-85
2022/07/02 07:44:55;;;;;;;4.68;1.30;;;18.60;99.90;;;;;;5014415;28;20038;-85
2022/07/02 07:47:20;;;;;;;3.75;1.00;;;18.60;99.90;;;;;;5014154;28;20458;-85
2022/07/02 07:49:46;;;;;;;3.22;1.00;;;18.70;99.90;;;;;;4996938;28;20045;-85
2022/07/02 07:52:11;;;;;;;3.75;0.98;;;18.70;99.90;;;;;;5014061;28;20068;-84
2022/07/02 07:54:37;;;;;;;3.72;0.95;;;18.70;99.90;;;;;;5013770;28;20483;-85
2022/07/02 07:57:04;;;;;;;4.25;1.13;;;18.70;99.20;;;;;;5002457;28;20041;-85
2022/07/02 07:59:29;;;;;;;5.97;1.13;;;18.80;99.90;;;;;;4978761;28;20092;-85
2022/07/02 08:01:55;;;;;;;6.43;1.20;;;18.80;99.90;;;;;;5006936;28;20119;-84
2022/07/02 08:04:21;;;;;;;3.97;0.82;;;18.90;98.80;;;;;;5014300;28;20029;-84
2022/07/02 08:06:46;;;;;;;3.33;1.00;;;18.90;97.10;;;;;;5014223;28;20042;-85
2022/07/02 08:09:12;;;;;;;5.70;0.90;;;19.00;98.90;;;;;;4993237;28;20037;-85
2022/07/02 08:11:38;;;;;;;3.38;0.90;;;19.00;94.80;;;;;;4996657;28;20522;-85
2022/07/02 08:14:04;;;;;;;4.90;0.90;;;19.00;96.50;;;;;;4996138;28;20037;-85
2022/07/02 08:16:31;;;;;;;3.25;1.00;;;19.10;99.40;;;;;;5012849;28;20045;-84
2022/07/02 08:18:56;;;;;;;4.13;1.25;;;19.20;99.30;;;;;;5013027;28;20053;-85
2022/07/02 08:21:22;;;;;;;5.10;0.98;;;19.30;99.90;;;;;;5013100;28;20067;-85
2022/07/02 08:23:47;;;;;;;4.40;0.90;;;19.40;98.70;;;;;;5013691;28;20041;-84
2022/07/02 08:26:13;;;;;;;3.60;0.80;;;19.40;99.50;;;;;;5029066;28;20041;-84
2022/07/02 08:28:39;;;;;;;5.10;1.27;;;19.50;99.90;;;;;;5013001;28;20498;-84
2022/07/02 08:31:05;;;;;;;3.88;1.00;;;19.60;97.10;;;;;;5012492;28;20041;-85
2022/07/02 08:33:30;;;;;;;4.50;1.00;;;19.60;97.20;;;;;;5011924;28;20041;-85
2022/07/02 08:35:56;;;;;;;4.53;1.10;;;19.60;95.60;;;;;;5013275;28;20038;-85
2022/07/02 08:38:22;;;;;;;4.38;0.90;;;19.70;97.70;;;;;;5012643;28;20029;-85
2022/07/02 08:40:48;;;;;;;3.53;0.90;;;19.80;95.80;;;;;;5012972;28;20037;-85
2022/07/02 08:43:15;;;;;;;4.35;1.00;;;19.90;95.60;;;;;;5013531;28;20475;-85
2022/07/02 08:45:42;;;;;;;5.40;1.20;;;19.90;95.50;;;;;;5012178;28;20037;-84
2022/07/02 08:48:09;;;;;;;4.68;1.08;;;19.90;96.60;;;;;;5013212;28;20033;-84
2022/07/02 08:50:36;;;;;;;4.22;0.98;;;19.90;93.00;;;;;;5011826;28;20120;-85
2022/07/02 08:53:04;;;;;;;2.97;0.90;;;20.00;92.50;;;;;;5011399;28;20042;-84
2022/07/02 08:55:32;;;;;;;4.97;1.15;;;20.00;92.50;;;;;;5012522;28;20025;-84
2022/07/02 08:57:58;;;;;;;4.22;1.20;;;20.00;96.10;;;;;;4995150;28;20290;-84
2022/07/02 09:00:25;;;;;;;4.28;1.08;;;20.10;95.90;;;;;;5012191;28;20072;-84
2022/07/02 09:02:53;;;;;;;3.65;1.00;;;20.20;97.30;;;;;;4996306;28;20428;-84
2022/07/02 09:05:21;;;;;;;4.88;1.02;;;20.30;94.00;;;;;;5013239;28;20119;-85
2022/07/02 09:07:47;;;;;;;4.28;1.00;;;20.30;93.80;;;;;;5012850;28;20071;-85
2022/07/02 09:10:14;;;;;;;4.30;1.00;;;20.40;97.70;;;;;;5011367;28;20060;-85
2022/07/02 09:12:40;;;;;;;5.38;1.25;;;20.40;94.00;;;;;;5012642;28;20033;-84
2022/07/02 09:15:06;;;;;;;3.50;1.15;;;20.50;96.50;;;;;;4995815;28;20052;-85
2022/07/02 09:17:33;;;;;;;6.10;1.10;;;20.50;93.00;;;;;;4996426;28;20395;-85
2022/07/02 09:19:58;;;;;;;5.78;1.20;;;20.50;96.10;;;;;;4995976;28;20034;-84
2022/07/02 09:22:39;;;;;;;6.15;1.63;;;20.50;94.60;;;;;;5013025;28;20045;-85
2022/07/02 09:25:10;;;;;;;5.70;1.20;;;20.60;96.70;;;;;;5013531;28;20083;-85
2022/07/02 09:27:36;;;;;;;6.00;1.30;;;20.60;95.90;;;;;;5011900;28;20124;-85
2022/07/02 09:30:02;;;;;;;5.78;1.30;;;20.60;95.40;;;;;;5012044;28;20590;-85
2022/07/02 09:32:36;;;;;;;7.30;1.55;;;20.60;94.20;;;;;;5011855;28;20041;-85
2022/07/02 09:35:01;;;;;;;6.40;1.40;;;20.60;93.10;;;;;;5012099;28;20033;-84
2022/07/02 09:37:28;;;;;;;5.90;1.40;;;20.60;93.70;;;;;;5012538;28;20045;-84
2022/07/02 09:39:57;;;;;;;6.93;1.55;;;20.70;92.90;;;;;;5009584;28;20406;-84
2022/07/02 09:42:25;;;;;;;5.05;1.20;;;20.70;91.60;;;;;;5012584;28;20415;-84
2022/07/02 09:44:50;;;;;;;4.57;1.10;;;20.80;94.40;;;;;;4995814;28;20041;-84
2022/07/02 09:47:16;;;;;;;5.85;1.20;;;20.80;90.80;;;;;;5012080;28;20055;-85
2022/07/02 09:49:48;;;;;;;5.05;1.10;;;20.70;91.40;;;;;;4994574;28;20034;-84
2022/07/02 09:52:16;;;;;;;4.93;1.30;;;20.70;86.00;;;;;;5013281;28;20202;-85
2022/07/02 09:54:42;;;;;;;5.90;1.30;;;20.70;92.20;;;;;;4997728;28;20041;-84
2022/07/02 09:57:10;;;;;;;5.93;1.30;;;20.80;90.90;;;;;;5014089;28;20073;-84
2022/07/02 09:59:37;;;;;;;7.85;1.25;;;20.90;93.50;;;;;;5013338;28;20457;-85
2022/07/02 10:02:04;;;;;;;5.65;1.20;;;21.00;94.60;;;;;;5016429;28;20095;-84
2022/07/02 10:04:31;;;;;;;5.57;1.20;;;21.10;90.00;;;;;;5015562;28;20041;-84
2022/07/02 10:06:58;;;;;;;6.43;1.30;;;21.20;91.90;;;;;;4996035;28;20045;-84
2022/07/02 10:09:26;;;;;;;4.60;1.10;;;21.30;94.20;;;;;;4997984;28;20045;-84
2022/07/02 10:11:52;;;;;;;6.75;1.60;;;21.40;90.10;;;;;;5013951;28;20494;-84
2022/07/02 10:14:23;;;;;;;4.10;1.00;;;21.50;85.40;;;;;;5015184;28;20034;-84
2022/07/02 10:16:50;;;;;;;5.78;1.20;;;21.50;89.60;;;;;;5015271;28;20060;-84
2022/07/02 10:19:17;;;;;;;6.13;1.20;;;21.40;79.20;;;;;;5014823;28;20278;-84
2022/07/02 10:21:44;;;;;;;5.78;1.42;;;21.30;82.90;;;;;;5015740;28;20048;-84
2022/07/02 10:24:10;;;;;;;6.50;1.50;;;21.30;87.90;;;;;;5014336;28;20420;-84
2022/07/02 10:26:37;;;;;;;4.63;1.05;;;21.40;89.80;;;;;;5015215;28;20057;-84
2022/07/02 10:29:03;;;;;;;5.30;1.08;;;21.40;85.30;;;;;;4998945;28;20033;-84
2022/07/02 10:31:37;;;;;;;5.78;1.20;;;21.40;81.90;;;;;;4998677;28;20060;-84
2022/07/02 10:34:34;;;;;;;5.13;1.08;;;21.40;84.70;;;;;;4998399;28;20045;-84
2022/07/02 10:36:59;;;;;;;6.30;1.30;;;21.40;84.20;;;;;;5004476;28;20071;-84
2022/07/02 10:39:25;;;;;;;4.07;1.00;;;21.40;74.30;;;;;;5014640;28;20045;-84
2022/07/02 10:41:51;;;;;;;3.45;1.00;;;21.20;78.20;;;;;;5014842;28;20048;-84
2022/07/02 10:44:16;;;;;;;5.45;1.30;;;21.20;85.00;;;;;;4999178;28;20141;-84
2022/07/02 10:46:48;;;;;;;4.47;1.20;;;21.20;79.50;;;;;;5014538;28;20121;-84
2022/07/02 10:49:25;;;;;;;3.10;0.90;;;21.30;82.30;;;;;;4998124;28;20080;-84
2022/07/02 10:51:57;;;;;;;4.75;1.40;;;21.50;80.60;;;;;;4996819;28;20049;-84
2022/07/02 10:54:31;;;;;;;7.15;1.15;;;21.50;82.20;;;;;;5013527;28;20032;-84
2022/07/02 10:56:56;;;;;;;6.53;1.40;;;21.50;80.20;;;;;;5014945;28;20497;-84
2022/07/02 10:59:23;;;;;;;5.75;1.38;;;21.60;83.10;;;;;;4998221;28;20033;-84
2022/07/02 11:02:04;;;;;;;5.55;1.30;;;21.70;79.30;;;;;;5015390;28;20060;-84
2022/07/02 11:04:29;;;;;;;5.88;1.00;;;21.60;76.90;;;;;;5015937;28;20144;-84
2022/07/02 11:07:09;;;;;;;5.05;1.05;;;21.50;79.50;;;;;;5014115;28;20132;-85
2022/07/02 11:10:01;;;;;;;4.32;1.17;;;21.40;82.90;;;;;;5014646;28;20072;-84
2022/07/02 11:12:41;;;;;;;5.45;1.30;;;21.30;86.30;;;;;;5014618;28;20042;-84
2022/07/02 11:15:21;;;;;;;5.80;1.38;;;21.20;84.30;;;;;;5013716;28;20103;-85
2022/07/02 11:17:50;;;;;;;3.65;1.10;;;21.20;84.90;;;;;;5014878;28;20102;-85
2022/07/02 11:20:25;;;;;;;6.47;1.40;;;21.10;87.20;;;;;;5013683;28;20582;-84
2022/07/02 11:22:52;;;;;;;5.28;1.20;;;21.20;91.40;;;;;;5015162;28;20037;-85
2022/07/02 11:25:18;;;;;;;6.05;1.33;;;21.10;90.00;;;;;;5014510;28;20048;-84
2022/07/02 11:27:53;;;;;;;7.60;1.20;;;21.20;92.80;;;;;;5014643;28;20034;-84
2022/07/02 11:30:24;;;;;;;5.18;1.20;;;21.30;92.30;;;;;;5013953;28;20041;-84
2022/07/02 11:32:50;;;;;;;5.50;1.40;;;21.70;91.80;;;;;;5012931;28;20037;-84
2022/07/02 11:35:18;;;;;;;6.63;1.40;;;21.70;91.80;;;;;;4997599;28;20041;-84
2022/07/02 11:37:44;;;;;;;5.00;1.42;;;21.70;90.10;;;;;;5013379;28;20503;-84
2022/07/02 11:40:20;;;;;;;5.50;1.35;;;21.70;91.50;;;;;;5030402;28;20037;-84
2022/07/02 11:42:46;;;;;;;6.47;1.50;;;21.70;86.50;;;;;;5014005;28;20050;-84
2022/07/02 11:45:12;;;;;;;7.50;1.48;;;21.60;92.40;;;;;;5030413;28;20037;-84
2022/07/02 11:47:49;;;;;;;4.40;1.30;;;21.60;91.20;;;;;;4998152;28;20045;-84
2022/07/02 11:50:27;;;;;;;4.78;1.52;;;21.70;92.80;;;;;;5010825;28;20033;-84
2022/07/02 11:52:52;;;;;;;5.50;1.20;;;21.70;90.80;;;;;;5012887;28;20048;-85
2022/07/02 11:55:18;;;;;;;3.78;1.27;;;21.70;87.70;;;;;;5013117;28;20037;-86
2022/07/02 11:57:44;;;;;;;5.05;1.50;;;21.70;91.80;;;;;;5012970;28;20578;-85
2022/07/02 12:00:11;;;;;;;5.18;1.38;;;21.90;91.60;;;;;;5013496;28;20045;-85
2022/07/02 12:02:40;;;;;;;7.93;1.60;;;22.10;87.80;;;;;;5013500;28;20047;-85
2022/07/02 12:05:19;;;;;;;6.38;1.40;;;22.10;90.10;;;;;;4998075;28;20068;-85
2022/07/02 12:07:46;;;;;;;6.63;1.45;;;22.20;87.60;;;;;;4996998;28;20045;-85
2022/07/02 12:10:13;;;;;;;5.72;1.50;;;22.30;84.90;;;;;;5003653;28;20072;-85
2022/07/02 12:12:39;;;;;;;6.65;1.15;;;22.40;88.00;;;;;;5002240;28;20398;-85
2022/07/02 12:15:06;;;;;;;4.35;1.17;;;22.60;79.70;;;;;;5005023;28;20140;-85
2022/07/02 12:17:35;;;;;;;6.53;1.30;;;22.70;81.20;;;;;;5026242;28;20052;-85
2022/07/02 12:20:06;;;;;;;5.97;1.10;;;22.80;79.10;;;;;;5004010;28;20071;-85
2022/07/02 12:22:33;;;;;;;5.30;1.30;;;22.90;76.90;;;;;;4984998;28;20038;-85
2022/07/02 12:24:59;;;;;;;4.97;1.20;;;23.00;76.30;;;;;;5007792;28;20139;-85
2022/07/02 12:27:25;;;;;;;7.65;1.40;;;23.10;77.00;;;;;;5012089;28;20205;-85
2022/07/02 12:29:55;;;;;;;6.95;1.60;;;23.10;83.00;;;;;;5012357;28;20033;-85
2022/07/02 12:32:22;;;;;;;5.85;1.10;;;22.90;73.80;;;;;;5012950;28;20033;-85
2022/07/02 12:34:54;;;;;;;3.33;1.17;;;22.90;72.70;;;;;;5012750;28;20137;-85
2022/07/02 12:37:33;;;;;;;4.53;1.25;;;22.80;73.70;;;;;;4995941;28;20430;-85
2022/07/02 12:40:04;;;;;;;4.85;1.15;;;22.80;76.50;;;;;;5029613;28;20037;-85
2022/07/02 12:42:33;;;;;;;4.22;1.00;;;22.70;76.90;;;;;;5013524;28;20051;-85
2022/07/02 12:45:06;;;;;;;6.25;1.27;;;22.80;74.20;;;;;;5013190;28;20116;-85
2022/07/02 12:47:35;;;;;;;4.80;1.30;;;22.90;82.50;;;;;;5013590;28;20053;-85
2022/07/02 12:50:09;;;;;;;4.53;1.40;;;23.00;85.10;;;;;;5012165;28;20045;-85
2022/07/02 12:52:45;;;;;;;5.82;1.30;;;23.10;84.60;;;;;;5012791;28;20045;-85